Time;durP1;ratioP1;P1;durP2;ratioP2;P2;SDS_P1;SDS_P2;PMS_P1;PMS_P2;Temp;Humidity;BMP_temperature;BMP_pressure;BME280_temperature;BME280_humidity;BME280_pressure;Samples;Min_cycle;Max_cycle;Signal;HPM_P1;HPM_P2
2024/03/04 16:25:41;;;;;;;;;;;5.00;99.90;;;;;;5104519;27;20272;-95
2024/03/04 16:28:07;;;;;;;;;;;4.90;99.90;;;;;;5104558;28;19920;-93
2024/03/04 16:30:32;;;;;;;;;;;5.00;99.90;;;;;;5070864;28;19912;-95
2024/03/04 16:32:58;;;;;;;;;;;5.00;99.90;;;;;;5070177;28;19908;-91
2024/03/04 16:35:26;;;;;;;;;;;5.10;99.90;;;;;;5053137;28;19913;-94
2024/03/04 16:37:55;;;;;;;;;;;5.10;99.90;;;;;;5070692;28;20007;-94
2024/03/04 16:40:20;;;;;;;;;;;5.20;99.90;;;;;;5071204;28;19960;-91
2024/03/04 16:42:45;;;;;;;;;;;5.20;99.90;;;;;;5070858;28;19916;-93
2024/03/04 16:45:11;;;;;;;;;;;5.30;99.90;;;;;;5070465;28;19916;-92
2024/03/04 16:47:37;;;;;;;;;;;5.30;99.90;;;;;;5070477;28;20325;-92
2024/03/04 16:50:03;;;;;;;;;;;5.30;99.90;;;;;;5069866;28;19916;-94
2024/03/04 16:52:28;;;;;;;;;;;5.30;99.90;;;;;;5073557;28;19988;-95
2024/03/04 16:54:54;;;;;;;;;;;5.30;99.90;;;;;;5083539;28;20050;-94
2024/03/04 16:57:19;;;;;;;;;;;5.30;99.90;;;;;;5066951;28;19920;-93
2024/03/04 16:59:45;;;;;;;;;;;5.30;99.90;;;;;;5079312;28;20378;-94
2024/03/04 17:05:15;;;;;;;;;;;5.20;99.90;;;;;;5058766;28;19920;-96
2024/03/04 17:07:44;;;;;;;;;;;5.20;99.90;;;;;;5057898;28;19913;-94
2024/03/04 17:10:13;;;;;;;;;;;5.20;99.90;;;;;;5081679;28;19917;-95
2024/03/04 17:12:46;;;;;;;;;;;5.20;99.90;;;;;;5089916;23;19961;-96
2024/03/04 17:15:13;;;;;;;;;;;5.10;99.90;;;;;;5100658;28;19952;-95
2024/03/04 17:17:40;;;;;;;;;;;5.10;99.90;;;;;;5064389;28;19897;-96
2024/03/04 17:20:08;;;;;;;;;;;5.10;99.90;;;;;;5094233;28;20072;-95
2024/03/04 17:22:42;;;;;;;;;;;5.00;99.90;;;;;;5087269;28;19984;-96
2024/03/04 17:25:08;;;;;;;;;;;5.00;99.90;;;;;;5080342;28;20278;-96
2024/03/04 17:27:33;;;;;;;;;;;4.90;99.90;;;;;;5090840;28;19917;-95
2024/03/04 17:29:59;;;;;;;;;;;4.90;99.90;;;;;;5089429;28;19909;-96
2024/03/04 17:32:26;;;;;;;;;;;4.80;99.90;;;;;;5058500;28;19913;-96
2024/03/04 17:34:52;;;;;;;;;;;4.80;99.90;;;;;;5098752;28;19909;-96
2024/03/04 17:37:18;;;;;;;;;;;4.80;99.90;;;;;;5088818;28;20271;-95
2024/03/04 17:42:12;;;;;;;;;;;4.70;99.90;;;;;;5308887;22;19923;-96
2024/03/04 17:44:41;;;;;;;;;;;4.70;99.90;;;;;;5066041;28;20007;-95
2024/03/04 17:47:06;;;;;;;;;;;4.60;99.90;;;;;;5068311;28;20277;-96
2024/03/04 17:49:32;;;;;;;;;;;4.60;99.90;;;;;;5071107;28;20368;-95
2024/03/04 17:51:59;;;;;;;;;;;4.50;99.90;;;;;;5065446;28;19908;-96
2024/03/04 17:54:25;;;;;;;;;;;4.50;99.90;;;;;;5067431;28;19959;-96
2024/03/04 17:56:51;;;;;;;;;;;4.40;99.90;;;;;;5069225;28;19908;-95
2024/03/04 17:59:17;;;;;;;;;;;4.40;99.90;;;;;;5061783;28;19919;-96
2024/03/04 18:01:43;;;;;;;;;;;4.40;99.90;;;;;;5067888;28;20003;-95
2024/03/04 18:04:09;;;;;;;;;;;4.30;99.90;;;;;;5060606;28;19978;-95
2024/03/04 18:06:35;;;;;;;;;;;4.30;99.90;;;;;;5068229;28;19931;-96
2024/03/04 18:09:02;;;;;;;;;;;4.30;99.90;;;;;;5070652;28;19909;-96
2024/03/04 18:11:30;;;;;;;;;;;4.30;99.90;;;;;;5058672;28;19920;-96
2024/03/04 18:13:57;;;;;;;;;;;4.30;99.90;;;;;;5073329;28;19913;-95
2024/03/04 18:16:23;;;;;;;;;;;4.30;99.90;;;;;;5052713;28;19936;-95
2024/03/04 18:18:50;;;;;;;;;;;4.30;99.90;;;;;;5049732;28;19901;-96
2024/03/04 18:21:16;;;;;;;;;;;4.30;99.90;;;;;;5033769;28;19913;-96
2024/03/04 18:23:42;;;;;;;;;;;4.30;99.90;;;;;;5043761;28;19913;-95
2024/03/04 18:26:10;;;;;;;;;;;4.30;99.90;;;;;;5041079;28;20016;-96
2024/03/04 18:28:38;;;;;;;;;;;4.30;99.90;;;;;;5058079;28;19909;-95
2024/03/04 18:31:05;;;;;;;;;;;4.30;99.90;;;;;;5054322;28;19930;-96
2024/03/04 18:33:30;;;;;;;;;;;4.30;99.90;;;;;;5078926;28;19912;-96
2024/03/04 18:36:07;;;;;;;;;;;4.20;99.90;;;;;;5076880;28;19931;-96
2024/03/04 18:38:32;;;;;;;;;;;4.20;99.90;;;;;;5069595;28;19909;-96
2024/03/04 18:40:58;;;;;;;;;;;4.20;99.90;;;;;;5045858;28;19916;-96
2024/03/04 18:43:23;;;;;;;;;;;4.10;99.90;;;;;;5044178;28;19932;-95
2024/03/04 18:45:49;;;;;;;;;;;4.10;99.90;;;;;;5036506;28;19924;-95
2024/03/04 18:48:14;;;;;;;;;;;4.10;99.90;;;;;;5044390;28;19909;-95
2024/03/04 18:50:40;;;;;;;;;;;4.10;99.90;;;;;;5055662;28;19939;-96
2024/03/04 18:53:08;;;;;;;;;;;4.00;99.90;;;;;;5051555;28;19909;-96
2024/03/04 18:55:34;;;;;;;;;;;4.00;99.90;;;;;;5033418;28;19913;-94
2024/03/04 18:58:00;;;;;;;;;;;4.00;99.90;;;;;;5067113;28;19916;-96
2024/03/04 19:00:27;;;;;;;;;;;3.90;99.90;;;;;;5053972;28;19909;-94
2024/03/04 19:02:53;;;;;;;;;;;3.90;99.90;;;;;;5048004;28;19897;-96
2024/03/04 19:05:19;;;;;;;;;;;3.90;99.90;;;;;;5062238;28;20002;-94
2024/03/04 19:07:47;;;;;;;;;;;3.90;99.90;;;;;;5054987;28;19909;-95
2024/03/04 19:10:34;;;;;;;;;;;3.90;99.90;;;;;;5041409;28;19897;-96
2024/03/04 19:16:03;;;;;;;;;;;3.90;99.90;;;;;;5064062;28;19916;-93
2024/03/04 19:18:29;;;;;;;;;;;3.80;99.90;;;;;;5042331;28;19913;-95
2024/03/04 19:20:57;;;;;;;;;;;3.80;99.90;;;;;;5037376;28;19916;-93
2024/03/04 19:23:26;;;;;;;;;;;3.80;99.90;;;;;;5044454;28;19952;-95
2024/03/04 19:25:52;;;;;;;;;;;3.80;99.90;;;;;;5059022;28;19992;-92
2024/03/04 19:28:20;;;;;;;;;;;3.90;99.90;;;;;;5055568;28;19940;-94
2024/03/04 19:30:47;;;;;;;;;;;3.90;99.90;;;;;;5039486;28;20361;-96
2024/03/04 19:33:13;;;;;;;;;;;3.90;99.90;;;;;;5043890;28;19904;-96
2024/03/04 19:35:38;;;;;;;;;;;3.80;99.90;;;;;;5055078;28;19905;-95
2024/03/04 19:40:45;;;;;;;;;;;3.90;99.90;;;;;;5106086;28;19924;-95
2024/03/04 19:43:11;;;;;;;;;;;3.90;99.90;;;;;;5091106;28;19908;-96
2024/03/04 19:45:37;;;;;;;;;;;3.90;99.90;;;;;;5087606;28;20372;-96
2024/03/04 20:28:04;;;;;;;;;;;2.80;99.90;;;;;;5063371;28;19925;-93
2024/03/04 20:30:30;;;;;;;;;;;2.70;99.90;;;;;;5034401;28;19995;-94
2024/03/04 20:32:55;;;;;;;;;;;2.70;99.90;;;;;;5025119;28;19963;-94
2024/03/04 20:35:21;;;;;;;;;;;2.70;99.90;;;;;;5024234;28;20263;-94
2024/03/04 20:37:47;;;;;;;;;;;2.80;99.90;;;;;;5035972;28;19915;-96
2024/03/04 21:27:58;;;;;;;;;;;2.70;99.90;;;;;;5323324;23;20020;-96
2024/03/04 21:30:26;;;;;;;;;;;2.60;99.90;;;;;;5506550;23;19935;-96
2024/03/04 21:32:52;;;;;;;;;;;2.60;99.90;;;;;;5005751;28;19918;-96
